createdAt,value
2019-01-12T00:02:19.524Z,99674.81
2019-01-12T00:05:21.519Z,99666.70
2019-01-12T00:08:23.656Z,99664.56
2019-01-12T00:11:25.920Z,99673.81
2019-01-12T00:14:28.109Z,99679.30
2019-01-12T00:17:30.380Z,99671.68
2019-01-12T00:20:33.047Z,99673.63
2019-01-12T00:23:35.405Z,99677.48
2019-01-12T00:26:37.417Z,99671.55
2019-01-12T00:29:39.419Z,99669.10
2019-01-12T00:32:41.510Z,99667.47
2019-01-12T00:35:43.583Z,99666.33
2019-01-12T00:38:45.534Z,99666.37
2019-01-12T00:41:47.566Z,99668.51
2019-01-12T00:44:49.503Z,99667.38
2019-01-12T00:47:51.526Z,99668.74
2019-01-12T00:50:53.482Z,99669.83
2019-01-12T00:53:55.542Z,99674.81
2019-01-12T00:56:57.525Z,99676.70
2019-01-12T00:59:59.498Z,99678.63
2019-01-12T01:03:01.459Z,99682.52
2019-01-12T01:06:03.544Z,99689.09
2019-01-12T01:09:07.726Z,99689.67
2019-01-12T01:12:09.699Z,99697.02
2019-01-12T01:15:11.874Z,99690.53
2019-01-12T01:18:13.890Z,99698.78
2019-01-12T01:21:15.934Z,99710.80
2019-01-12T01:24:17.952Z,99699.45
2019-01-12T01:27:21.139Z,99712.23
2019-01-12T01:30:23.242Z,99710.38
2019-01-12T01:33:28.029Z,99707.89
2019-01-12T01:36:29.288Z,99717.09
2019-01-12T01:39:31.245Z,99721.48
2019-01-12T01:42:33.244Z,99730.25
2019-01-12T01:45:35.202Z,99734.87
2019-01-12T01:48:37.594Z,99728.11
2019-01-12T01:51:39.584Z,99735.73
2019-01-12T01:54:41.571Z,99747.52
2019-01-12T01:57:43.594Z,99746.70
2019-01-12T02:00:45.628Z,99746.12
2019-01-12T02:03:47.562Z,99748.06
2019-01-12T02:07:07.939Z,99750.09
2019-01-12T02:10:16.142Z,99746.78
2019-01-12T02:13:18.130Z,99756.50
2019-01-12T02:16:20.046Z,99751.69
2019-01-12T02:19:22.207Z,99754.53
2019-01-12T02:22:24.141Z,99755.08
2019-01-12T02:25:26.170Z,99753.17
2019-01-12T02:28:28.122Z,99756.80
2019-01-12T02:31:30.111Z,99759.25
2019-01-12T02:34:32.065Z,99751.84
2019-01-12T02:37:34.067Z,99753.77
2019-01-12T02:40:36.083Z,99755.39
2019-01-12T02:43:38.122Z,99750.30
2019-01-12T02:46:40.079Z,99742.72
2019-01-12T02:49:42.461Z,99752.83
2019-01-12T02:52:44.402Z,99748.23
2019-01-12T02:55:46.446Z,99753.42
2019-01-12T02:58:48.391Z,99750.16
2019-01-12T03:01:50.376Z,99749.05
2019-01-12T03:04:52.284Z,99755.56
2019-01-12T03:07:54.330Z,99752.67
2019-01-12T03:10:56.410Z,99754.81
2019-01-12T03:13:58.720Z,99758.17
2019-01-12T03:17:00.661Z,99752.45
2019-01-12T03:20:06.983Z,99755.45
2019-01-12T03:23:08.950Z,99760.58
2019-01-12T03:26:10.935Z,99759.02
2019-01-12T03:29:12.847Z,99761.04
2019-01-12T03:32:14.903Z,99762.20
2019-01-12T03:35:16.804Z,99765.20
2019-01-12T03:38:19.005Z,99767.14
2019-01-12T03:41:21.027Z,99768.86
2019-01-12T03:44:23.050Z,99763.17
2019-01-12T03:47:24.917Z,99768.03
2019-01-12T03:50:26.872Z,99760.20
2019-01-12T03:53:28.742Z,99757.52
2019-01-12T03:56:30.910Z,99757.28
2019-01-12T03:59:32.837Z,99766.24
2019-01-12T04:02:34.740Z,99768.97
2019-01-12T04:05:36.680Z,99776.91
2019-01-12T04:08:38.678Z,99770.13
2019-01-12T04:11:40.672Z,99781.77
2019-01-12T04:14:42.618Z,99778.58
2019-01-12T04:17:44.567Z,99786.23
2019-01-12T04:20:46.886Z,99787.67
2019-01-12T04:23:48.779Z,99786.65
2019-01-12T04:26:50.751Z,99790.53
2019-01-12T04:29:52.623Z,99789.17
2019-01-12T04:32:54.575Z,99782.36
2019-01-12T04:35:56.479Z,99779.91
2019-01-12T04:38:58.458Z,99790.56
2019-01-12T04:42:00.394Z,99793.84
2019-01-12T04:45:02.470Z,99794.63
2019-01-12T04:48:04.656Z,99792.48
2019-01-12T04:51:06.629Z,99800.96
2019-01-12T04:54:08.565Z,99805.56
2019-01-12T04:57:10.956Z,99810.50
2019-01-12T05:00:14.636Z,99812.75
2019-01-12T05:03:16.603Z,99817.38
2019-01-12T05:06:18.544Z,99824.54
2019-01-12T05:09:20.503Z,99823.45
2019-01-12T05:12:22.526Z,99826.72
2019-01-12T05:15:24.502Z,99832.11
2019-01-12T05:18:26.408Z,99832.11
2019-01-12T05:21:28.986Z,99828.30
2019-01-12T05:24:30.902Z,99832.96
2019-01-12T05:27:32.873Z,99836.74
2019-01-12T05:30:34.838Z,99836.78
2019-01-12T05:33:36.783Z,99840.87
2019-01-12T05:36:38.715Z,99836.78
2019-01-12T05:39:40.634Z,99844.14
2019-01-12T05:42:42.630Z,99838.99
2019-01-12T05:45:44.603Z,99840.91
2019-01-12T05:48:46.540Z,99849.15
2019-01-12T05:51:50.762Z,99847.24
2019-01-12T05:54:53.065Z,99857.33
2019-01-12T05:57:54.970Z,99856.72
2019-01-12T06:00:56.916Z,99853.34
2019-01-12T06:04:02.787Z,99857.31
2019-01-12T06:07:06.532Z,99860.67
2019-01-12T06:10:10.564Z,99866.00
2019-01-12T06:13:12.603Z,99869.97
2019-01-12T06:16:14.553Z,99884.73
2019-01-12T06:19:16.496Z,99881.89
2019-01-12T06:22:22.925Z,99880.56
2019-01-12T06:25:27.433Z,99888.78
2019-01-12T06:28:34.743Z,99894.04
2019-01-12T06:31:36.707Z,99892.20
2019-01-12T06:34:38.972Z,99897.35
2019-01-12T06:37:41.686Z,99896.96
2019-01-12T06:40:43.680Z,99906.00
2019-01-12T06:43:45.686Z,99906.08
2019-01-12T06:46:47.638Z,99913.70
2019-01-12T06:49:49.803Z,99906.34
2019-01-12T06:52:51.702Z,99912.39
2019-01-12T06:55:53.571Z,99904.75
2019-01-12T06:58:55.522Z,99903.66
2019-01-12T07:01:57.422Z,99914.25
2019-01-12T07:05:01.310Z,99907.98
2019-01-12T07:08:03.883Z,99909.73
2019-01-12T07:11:05.936Z,99911.10
2019-01-12T07:14:08.418Z,99918.70
2019-01-12T07:17:10.303Z,99918.38
2019-01-12T07:20:14.067Z,99915.97
2019-01-12T07:23:15.994Z,99920.13
2019-01-12T07:26:17.885Z,99923.45
2019-01-12T07:29:19.826Z,99923.21
2019-01-12T07:32:21.806Z,99930.06
2019-01-12T07:35:23.726Z,99921.34
2019-01-12T07:38:25.684Z,99924.65
2019-01-12T07:41:27.643Z,99926.97
2019-01-12T07:44:29.758Z,99926.97
2019-01-12T07:47:31.702Z,99929.47
2019-01-12T07:50:33.659Z,99923.47
2019-01-12T07:53:35.556Z,99922.45
2019-01-12T07:56:37.538Z,99920.54
2019-01-12T07:59:39.464Z,99927.97
2019-01-12T08:02:41.418Z,99919.79
2019-01-12T08:05:43.268Z,99921.94
2019-01-12T08:08:45.932Z,99923.02
2019-01-12T08:11:47.947Z,99923.20
2019-01-12T08:14:50.255Z,99918.41
2019-01-12T08:17:52.857Z,99918.66
2019-01-12T08:20:54.798Z,99920.94
2019-01-12T08:23:56.726Z,99925.34
2019-01-12T08:26:58.717Z,99918.69
2019-01-12T08:30:00.678Z,99923.87
2019-01-12T08:33:02.642Z,99919.38
2019-01-12T08:36:04.585Z,99924.73
2019-01-12T08:39:06.745Z,99919.04
2019-01-12T08:42:08.948Z,99918.87
2019-01-12T08:45:11.354Z,99913.54
2019-01-12T08:48:13.318Z,99911.94
2019-01-12T08:51:15.260Z,99912.52
2019-01-12T08:54:17.165Z,99897.83
2019-01-12T08:57:19.315Z,99905.11
2019-01-12T09:00:21.314Z,99907.33
2019-01-12T09:03:24.334Z,99903.72
2019-01-12T09:06:26.306Z,99899.05
2019-01-12T09:09:28.955Z,99905.96
2019-01-12T09:12:30.910Z,99906.59
2019-01-12T09:15:32.877Z,99905.59
2019-01-12T09:18:34.758Z,99898.36
2019-01-12T09:21:36.779Z,99896.77
2019-01-12T09:24:38.701Z,99902.86
2019-01-12T09:27:40.678Z,99895.52
2019-01-12T09:30:48.432Z,99895.23
2019-01-12T09:33:46.762Z,99895.58
2019-01-12T09:36:48.733Z,99895.63
2019-01-12T09:39:50.718Z,99895.70
2019-01-12T09:42:52.645Z,99883.78
2019-01-12T09:45:54.731Z,99880.27
2019-01-12T09:48:56.669Z,99872.10
2019-01-12T09:51:58.690Z,99878.33
2019-01-12T09:55:00.682Z,99882.35
2019-01-12T09:58:02.643Z,99875.73
2019-01-12T10:01:04.556Z,99866.72
2019-01-12T10:04:07.220Z,99864.61
2019-01-12T10:07:09.214Z,99865.18
2019-01-12T10:10:14.359Z,99853.92
2019-01-12T10:13:16.424Z,99862.05
2019-01-12T10:16:18.485Z,99861.17
2019-01-12T10:19:20.511Z,99856.28
2019-01-12T10:22:28.448Z,99857.42
2019-01-12T10:25:26.413Z,99848.70
2019-01-12T10:28:28.375Z,99843.72
2019-01-12T10:31:30.315Z,99842.63
2019-01-12T10:34:32.911Z,99833.05
2019-01-12T10:37:34.963Z,99831.64
2019-01-12T10:40:36.966Z,99829.75
2019-01-12T10:43:38.882Z,99821.83
2019-01-12T10:46:42.183Z,99818.04
2019-01-12T10:49:44.129Z,99809.84
2019-01-12T10:52:46.268Z,99808.48
2019-01-12T10:55:48.177Z,99803.03
2019-01-12T10:58:50.174Z,99807.97
2019-01-12T11:01:52.076Z,99797.84
2019-01-12T11:04:54.018Z,99795.65
2019-01-12T11:07:57.471Z,99791.47
2019-01-12T11:11:00.239Z,99783.56
2019-01-12T11:14:02.302Z,99784.15
2019-01-12T11:17:04.517Z,99776.52
2019-01-12T11:20:08.458Z,99774.90
2019-01-12T11:23:10.668Z,99766.13
2019-01-12T11:26:12.599Z,99771.86
2019-01-12T11:29:14.598Z,99769.19
2019-01-12T11:32:16.470Z,99759.84
2019-01-12T11:35:18.462Z,99757.12
2019-01-12T11:38:20.569Z,99751.11
2019-01-12T11:41:22.532Z,99737.18
2019-01-12T11:44:24.477Z,99742.60
2019-01-12T11:47:26.510Z,99747.97
2019-01-12T11:50:28.467Z,99743.59
2019-01-12T11:53:30.416Z,99731.64
2019-01-12T11:56:32.399Z,99722.39
2019-01-12T11:59:34.395Z,99715.25
2019-01-12T12:02:37.881Z,99717.16
2019-01-12T12:05:40.165Z,99705.43
2019-01-12T12:08:42.173Z,99700.84
2019-01-12T12:11:44.928Z,99701.93
2019-01-12T12:14:46.870Z,99698.38
2019-01-12T12:17:49.008Z,99695.11
2019-01-12T12:20:51.188Z,99692.94
2019-01-12T12:23:53.170Z,99687.44
2019-01-12T12:26:55.093Z,99684.97
2019-01-12T12:29:57.076Z,99677.82
2019-01-12T12:32:59.061Z,99670.45
2019-01-12T12:36:01.045Z,99666.33
2019-01-12T12:39:05.214Z,99667.99
2019-01-12T12:42:07.205Z,99668.51
2019-01-12T12:45:12.744Z,99656.73
2019-01-12T12:48:14.962Z,99657.00
2019-01-12T12:51:16.988Z,99650.48
2019-01-12T12:54:18.948Z,99643.68
2019-01-12T12:57:20.895Z,99643.66
2019-01-12T13:00:26.598Z,99640.38
2019-01-12T13:03:28.518Z,99630.03
2019-01-12T13:06:30.902Z,99639.82
2019-01-12T13:09:32.828Z,99632.11
2019-01-12T13:12:35.354Z,99632.16
2019-01-12T13:15:37.368Z,99628.39
2019-01-12T13:18:39.608Z,99619.64
2019-01-12T13:21:41.501Z,99621.84
2019-01-12T13:24:43.525Z,99618.27
2019-01-12T13:27:45.546Z,99613.86
2019-01-12T13:30:47.817Z,99611.10
2019-01-12T13:33:49.754Z,99608.06
2019-01-12T13:36:51.721Z,99609.19
2019-01-12T13:39:53.668Z,99601.00
2019-01-12T13:42:56.219Z,99594.67
2019-01-12T13:45:58.155Z,99600.97
2019-01-12T13:49:00.201Z,99603.71
2019-01-12T13:52:02.124Z,99594.66
2019-01-12T13:55:07.603Z,99591.41
2019-01-12T13:58:10.078Z,99592.78
2019-01-12T14:01:12.291Z,99589.78
2019-01-12T14:04:14.312Z,99586.25
2019-01-12T14:07:16.281Z,99581.02
2019-01-12T14:10:18.699Z,99578.81
2019-01-12T14:13:22.307Z,99572.03
2019-01-12T14:16:24.321Z,99576.96
2019-01-12T14:19:26.462Z,99569.87
2019-01-12T14:22:28.371Z,99565.73
2019-01-12T14:25:30.313Z,99564.31
2019-01-12T14:28:32.329Z,99558.86
2019-01-12T14:31:34.316Z,99550.67
2019-01-12T14:34:36.241Z,99549.83
2019-01-12T14:37:38.220Z,99547.95
2019-01-12T14:40:40.125Z,99548.48
2019-01-12T14:43:42.102Z,99538.92
2019-01-12T14:46:43.990Z,99537.88
2019-01-12T14:49:46.019Z,99533.80
2019-01-12T14:52:47.906Z,99526.67
2019-01-12T14:55:49.920Z,99524.48
2019-01-12T14:58:51.906Z,99519.28
2019-01-12T15:01:53.956Z,99519.02
2019-01-12T15:04:56.061Z,99520.12
2019-01-12T15:07:58.203Z,99502.39
2019-01-12T15:11:00.102Z,99505.37
2019-01-12T15:14:02.316Z,99501.28
2019-01-12T15:17:04.366Z,99507.00
2019-01-12T15:20:10.019Z,99490.34
2019-01-12T15:23:11.896Z,99492.27
2019-01-12T15:26:13.876Z,99490.63
2019-01-12T15:29:17.243Z,99486.54
2019-01-12T15:32:19.249Z,99483.54
2019-01-12T15:35:23.378Z,99473.98
2019-01-12T15:38:25.868Z,99470.43
2019-01-12T15:41:27.813Z,99470.17
2019-01-12T15:44:29.741Z,99469.06
2019-01-12T15:47:31.653Z,99461.97
2019-01-12T15:50:33.728Z,99470.70
2019-01-12T15:53:35.683Z,99462.51
2019-01-12T15:56:38.071Z,99454.33
2019-01-12T15:59:39.958Z,99446.69
2019-01-12T16:02:41.914Z,99446.43
2019-01-12T16:05:43.825Z,99451.61
2019-01-12T16:08:45.868Z,99445.08
2019-01-12T16:11:47.818Z,99438.25
2019-01-12T16:14:50.704Z,99438.80
2019-01-12T16:17:53.073Z,99432.80
2019-01-12T16:20:55.233Z,99430.89
2019-01-12T16:23:57.241Z,99427.33
2019-01-12T16:26:59.691Z,99419.69
2019-01-12T16:30:01.634Z,99410.70
2019-01-12T16:33:12.308Z,99411.77
2019-01-12T16:36:14.703Z,99417.48
2019-01-12T16:39:16.695Z,99420.75
2019-01-12T16:42:18.641Z,99419.94
2019-01-12T16:45:20.757Z,99406.84
2019-01-12T16:48:22.666Z,99408.77
2019-01-12T16:51:24.803Z,99400.27
2019-01-12T16:54:26.750Z,99397.55
2019-01-12T16:57:29.112Z,99391.80
2019-01-12T17:00:31.032Z,99387.17
2019-01-12T17:03:32.978Z,99389.63
2019-01-12T17:06:34.875Z,99378.97
2019-01-12T17:09:36.860Z,99377.06
2019-01-12T17:12:38.791Z,99367.26
2019-01-12T17:15:40.803Z,99375.72
2019-01-12T17:18:42.818Z,99374.36
2019-01-12T17:21:44.902Z,99356.36
2019-01-12T17:24:46.866Z,99353.63
2019-01-12T17:27:48.925Z,99349.80
2019-01-12T17:30:50.859Z,99346.24
2019-01-12T17:33:52.835Z,99354.18
2019-01-12T17:36:58.740Z,99345.17
2019-01-12T17:39:58.679Z,99340.26
2019-01-12T17:43:00.600Z,99345.98
2019-01-12T17:46:02.623Z,99342.73
2019-01-12T17:49:05.938Z,99338.09
2019-01-12T17:52:08.047Z,99334.27
2019-01-12T17:55:13.330Z,99334.27
2019-01-12T17:58:15.385Z,99328.55
2019-01-12T18:01:19.107Z,99322.80
2019-01-12T18:04:21.055Z,99323.08
2019-01-12T18:07:22.945Z,99320.61
2019-01-12T18:10:24.949Z,99311.86
2019-01-12T18:13:29.383Z,99310.50
2019-01-12T18:16:32.082Z,99303.70
2019-01-12T18:19:36.082Z,99302.31
2019-01-12T18:22:38.438Z,99294.67
2019-01-12T18:25:40.372Z,99289.50
2019-01-12T18:28:43.600Z,99290.30
2019-01-12T18:31:47.323Z,99284.04
2019-01-12T18:34:50.812Z,99280.75
2019-01-12T18:37:52.748Z,99266.84
2019-01-12T18:40:54.749Z,99266.55
2019-01-12T18:43:58.172Z,99258.93
2019-01-12T18:47:00.217Z,99260.84
2019-01-12T18:50:03.060Z,99258.37
2019-01-12T18:53:05.234Z,99260.53
2019-01-12T18:56:07.196Z,99248.81
2019-01-12T18:59:10.780Z,99241.69
2019-01-12T19:02:12.784Z,99240.84
2019-01-12T19:05:16.397Z,99234.88
2019-01-12T19:08:18.364Z,99229.66
2019-01-12T19:11:21.269Z,99231.27
2019-01-12T19:14:23.278Z,99227.45
2019-01-12T19:17:26.265Z,99220.34
2019-01-12T19:20:29.510Z,99221.45
2019-01-12T19:23:31.595Z,99212.15
2019-01-12T19:26:33.525Z,99213.78
2019-01-12T19:29:35.518Z,99203.66
2019-01-12T19:32:41.151Z,99200.14
2019-01-12T19:35:43.255Z,99197.65
2019-01-12T19:38:45.231Z,99187.02
2019-01-12T19:41:47.938Z,99184.00
2019-01-12T19:44:50.400Z,99175.00
2019-01-12T19:47:53.793Z,99178.80
2019-01-12T19:50:57.019Z,99178.03
2019-01-12T19:53:59.382Z,99172.86
2019-01-12T19:57:03.080Z,99170.42
2019-01-12T20:00:12.603Z,99161.97
2019-01-12T20:03:14.550Z,99162.52
2019-01-12T20:06:18.352Z,99155.72
2019-01-12T20:09:20.306Z,99148.05
2019-01-12T20:12:22.631Z,99142.60
2019-01-12T20:15:26.434Z,99141.50
2019-01-12T20:18:31.177Z,99139.36
2019-01-12T20:21:33.182Z,99137.70
2019-01-12T20:24:38.247Z,99133.89
2019-01-12T20:27:40.247Z,99130.63
2019-01-12T20:30:53.621Z,99122.16
2019-01-12T20:33:59.662Z,99117.82
2019-01-12T20:37:29.834Z,99104.98
2019-01-12T20:40:45.953Z,99109.33
2019-01-12T20:43:59.081Z,99101.98
2019-01-12T20:47:13.635Z,99089.20
2019-01-12T20:50:23.032Z,99090.27
2019-01-12T20:53:34.611Z,99090.81
2019-01-12T20:56:58.596Z,99082.91
2019-01-12T21:00:05.792Z,99085.64
2019-01-12T21:03:29.086Z,99072.83
2019-01-12T21:06:37.376Z,99075.56
2019-01-12T21:09:53.295Z,99072.02
2019-01-12T21:13:20.309Z,99068.22
2019-01-12T21:16:28.600Z,99062.48
2019-01-12T21:19:34.779Z,99053.52
2019-01-12T21:22:37.078Z,99044.27
2019-01-12T21:25:40.024Z,99044.52
2019-01-12T21:28:43.577Z,99046.44
2019-01-12T21:31:45.506Z,99052.16
2019-01-12T21:34:49.070Z,99056.26
2019-01-12T21:37:51.007Z,99043.45
2019-01-12T21:40:56.836Z,99046.43
2019-01-12T21:43:59.275Z,99039.91
2019-01-12T21:47:02.970Z,99040.17
2019-01-12T21:50:08.525Z,99026.28
2019-01-12T21:53:10.509Z,99017.02
2019-01-12T21:56:13.564Z,99017.28
2019-01-12T21:59:15.945Z,99017.55
2019-01-12T22:02:17.872Z,99022.72
2019-01-12T22:05:19.821Z,99020.02
2019-01-12T22:08:21.752Z,99015.94
2019-01-12T22:11:23.707Z,99011.83
2019-01-12T22:14:25.686Z,99008.03
2019-01-12T22:17:28.998Z,98999.31
2019-01-12T22:20:31.706Z,98993.86
2019-01-12T22:23:33.776Z,98993.31
2019-01-12T22:26:35.710Z,98987.86
2019-01-12T22:29:38.106Z,98993.05
2019-01-12T22:32:40.018Z,98992.24
2019-01-12T22:35:42.002Z,98987.05
2019-01-12T22:38:43.911Z,98988.97
2019-01-12T22:41:46.426Z,98984.59
2019-01-12T22:44:48.848Z,98988.13
2019-01-12T22:47:51.886Z,98987.58
2019-01-12T22:50:53.961Z,98981.61
2019-01-12T22:53:56.327Z,98979.95
2019-01-12T22:56:58.258Z,98972.59
2019-01-12T23:00:00.307Z,98968.50
2019-01-12T23:03:02.918Z,98970.13
2019-01-12T23:06:07.643Z,98970.94
2019-01-12T23:09:12.490Z,98966.33
2019-01-12T23:12:15.395Z,98952.41
2019-01-12T23:15:17.460Z,98950.23
2019-01-12T23:18:19.493Z,98934.69
2019-01-12T23:21:21.561Z,98947.22
2019-01-12T23:24:23.757Z,98935.75
2019-01-12T23:27:25.661Z,98948.31
2019-01-12T23:30:28.338Z,98944.76
2019-01-12T23:33:30.499Z,98940.40
2019-01-12T23:36:32.483Z,98940.66
2019-01-12T23:39:34.423Z,98945.55
2019-01-12T23:42:36.424Z,98940.66
2019-01-12T23:45:38.392Z,98937.93
2019-01-12T23:48:40.341Z,98936.27
2019-01-12T23:51:42.299Z,98943.08
2019-01-12T23:54:44.267Z,98929.19
2019-01-12T23:57:46.177Z,98940.66
